Time;durP1;ratioP1;P1;durP2;ratioP2;P2;SDS_P1;SDS_P2;PMS_P1;PMS_P2;Temp;Humidity;BMP_temperature;BMP_pressure;BME280_temperature;BME280_humidity;BME280_pressure;Samples;Min_cycle;Max_cycle;Signal;HPM_P1;HPM_P2
2023/06/02 00:00:18;;;;;;;;;;;;;;;;;;5006001;28;19980;-68
2023/06/02 00:02:45;;;;;;;;;;;;;;;;;;5006904;28;19975;-68
2023/06/02 00:05:11;;;;;;;;;;;;;;;;;;5006333;28;20008;-69
2023/06/02 00:07:37;;;;;;;;;;;;;;;;;;5006613;28;20024;-68
2023/06/02 00:10:03;;;;;;;;;;;;;;;;;;4988813;28;20015;-68
2023/06/02 00:12:29;;;;;;;;;;;;;;;;;;5007125;28;20024;-68
2023/06/02 00:14:55;;;;;;;;;;;;;;;;;;4988497;28;20371;-68
2023/06/02 00:17:21;;;;;;;;;;;;;;;;;;5006509;28;19925;-68
2023/06/02 00:19:47;;;;;;;;;;;;;;;;;;4998117;28;19933;-69
2023/06/02 00:22:13;;;;;;;;;;;;;;;;;;5006443;28;20368;-68
2023/06/02 00:24:39;;;;;;;;;;;;;;;;;;5006675;28;20367;-68
2023/06/02 00:27:07;;;;;;;;;;;;;;;;;;5006507;28;19926;-69
2023/06/02 00:29:32;;;;;;;;;;;;;;;;;;5005587;28;19956;-68
2023/06/02 00:31:58;;;;;;;;;;;;;;;;;;4988831;28;20427;-68
2023/06/02 00:34:24;;;;;;;;;;;;;;;;;;5006200;28;19929;-68
2023/06/02 00:36:50;;;;;;;;;;;;;;;;;;5006346;28;20243;-68
2023/06/02 00:39:16;;;;;;;;;;;;;;;;;;5006037;28;19925;-68
2023/06/02 00:41:42;;;;;;;;;;;;;;;;;;5005882;28;19929;-67
2023/06/02 00:44:08;;;;;;;;;;;;;;;;;;5005330;28;19933;-68
2023/06/02 00:46:34;;;;;;;;;;;;;;;;;;5005966;28;19930;-68
2023/06/02 00:49:00;;;;;;;;;;;;;;;;;;5005200;28;19925;-68
2023/06/02 00:51:26;;;;;;;;;;;;;;;;;;4991523;28;20013;-68
2023/06/02 00:53:51;;;;;;;;;;;;;;;;;;5005458;28;19926;-68
2023/06/02 00:56:17;;;;;;;;;;;;;;;;;;5006007;28;19983;-68
2023/06/02 00:58:44;;;;;;;;;;;;;;;;;;5005292;28;19925;-68
2023/06/02 01:01:10;;;;;;;;;;;;;;;;;;5005687;28;20230;-68
2023/06/02 01:03:37;;;;;;;;;;;;;;;;;;5005494;28;19926;-68
2023/06/02 01:06:03;;;;;;;;;;;;;;;;;;5005680;28;19926;-68
2023/06/02 01:11:08;;;;;;;;;;;;;;;;;;4982020;22;20020;-61
2023/06/02 01:13:34;;;;;;;;;;;;;;;;;;4977159;28;20020;-61
2023/06/02 01:16:01;;;;;;;;;;;;;;;;;;4982702;28;19937;-61
2023/06/02 01:18:29;;;;;;;;;;;;;;;;;;4980505;28;19981;-61
2023/06/02 01:20:57;;;;;;;;;;;;;;;;;;4981927;28;19972;-61
2023/06/02 01:23:23;;;;;;;;;;;;;;;;;;4986358;28;19930;-61
2023/06/02 01:25:49;;;;;;;;;;;;;;;;;;4985420;28;19925;-61
2023/06/02 01:28:15;;;;;;;;;;;;;;;;;;4983150;28;20454;-61
2023/06/02 01:30:41;;;;;;;;;;;;;;;;;;4985543;28;19932;-62
2023/06/02 01:33:07;;;;;;;;;;;;;;;;;;4986211;28;20428;-61
2023/06/02 01:35:33;;;;;;;;;;;;;;;;;;4985885;28;19926;-61
2023/06/02 01:37:59;;;;;;;;;;;;;;;;;;4985892;28;19922;-61
2023/06/02 01:40:25;;;;;;;;;;;;;;;;;;4986199;28;19933;-62
2023/06/02 01:42:51;;;;;;;;;;;;;;;;;;4984836;28;19926;-61
2023/06/02 01:45:17;;;;;;;;;;;;;;;;;;4985546;28;19976;-62
2023/06/02 01:47:43;;;;;;;;;;;;;;;;;;4985839;28;20346;-62
2023/06/02 01:50:09;;;;;;;;;;;;;;;;;;4984918;28;19976;-62
2023/06/02 01:52:35;;;;;;;;;;;;;;;;;;4985396;28;19930;-61
2023/06/02 01:55:01;;;;;;;;;;;;;;;;;;4985521;28;19929;-62
2023/06/02 01:57:27;;;;;;;;;;;;;;;;;;4989153;28;19968;-62
2023/06/02 01:59:53;;;;;;;;;;;;;;;;;;4988704;28;19932;-61
2023/06/02 02:02:19;;;;;;;;;;;;;;;;;;4989365;28;19921;-61
2023/06/02 02:04:45;;;;;;;;;;;;;;;;;;4988920;28;20014;-62
2023/06/02 02:07:11;;;;;;;;;;;;;;;;;;4989265;28;20370;-62
2023/06/02 02:09:37;;;;;;;;;;;;;;;;;;4996543;28;19925;-62
2023/06/02 02:12:03;;;;;;;;;;;;;;;;;;5009033;28;20448;-62
2023/06/02 02:14:30;;;;;;;;;;;;;;;;;;5008386;28;19925;-61
2023/06/02 02:17:00;;;;;;;;;;;;;;;;;;5008871;28;19979;-61
2023/06/02 02:19:31;;;;;;;;;;;;;;;;;;5008631;28;19932;-61
2023/06/02 02:21:57;;;;;;;;;;;;;;;;;;5008839;28;19925;-62
2023/06/02 02:24:23;;;;;;;;;;;;;;;;;;5009138;28;20272;-61
2023/06/02 02:26:48;;;;;;;;;;;;;;;;;;5008535;28;19960;-61
2023/06/02 02:29:14;;;;;;;;;;;;;;;;;;5007660;28;19929;-61
2023/06/02 02:31:40;;;;;;;;;;;;;;;;;;5008643;28;20391;-61
2023/06/02 02:34:07;;;;;;;;;;;;;;;;;;5008721;28;19925;-62
2023/06/02 02:36:32;;;;;;;;;;;;;;;;;;5008567;28;19971;-61
2023/06/02 02:38:58;;;;;;;;;;;;;;;;;;5008851;28;20159;-61
2023/06/02 02:41:24;;;;;;;;;;;;;;;;;;5008564;28;20622;-61
2023/06/02 02:43:50;;;;;;;;;;;;;;;;;;5007642;28;19930;-62
2023/06/02 02:46:16;;;;;;;;;;;;;;;;;;5008069;28;20371;-62
2023/06/02 02:48:42;;;;;;;;;;;;;;;;;;4995605;28;19925;-62
2023/06/02 02:51:08;;;;;;;;;;;;;;;;;;5008268;28;19925;-62
2023/06/02 02:53:34;;;;;;;;;;;;;;;;;;5008314;28;20383;-62
2023/06/02 02:56:00;;;;;;;;;;;;;;;;;;5007906;28;19933;-62
2023/06/02 02:58:26;;;;;;;;;;;;;;;;;;5006891;28;19922;-62
2023/06/02 03:00:52;;;;;;;;;;;;;;;;;;5007295;28;19933;-62
2023/06/02 03:03:20;;;;;;;;;;;;;;;;;;5007996;28;19950;-62
2023/06/02 03:05:47;;;;;;;;;;;;;;;;;;5007950;28;20286;-61
2023/06/02 03:08:15;;;;;;;;;;;;;;;;;;5007305;28;19925;-61
2023/06/02 03:10:42;;;;;;;;;;;;;;;;;;5007719;28;20000;-62
2023/06/02 03:13:08;;;;;;;;;;;;;;;;;;5006812;28;19999;-61
2023/06/02 03:15:33;;;;;;;;;;;;;;;;;;5007245;28;20433;-62
2023/06/02 03:18:00;;;;;;;;;;;;;;;;;;5008035;28;20020;-62
2023/06/02 03:20:26;;;;;;;;;;;;;;;;;;5007732;28;19926;-65
2023/06/02 03:22:52;;;;;;;;;;;;;;;;;;5007473;28;20611;-65
2023/06/02 03:25:20;;;;;;;;;;;;;;;;;;5007413;28;19925;-62
2023/06/02 03:27:46;;;;;;;;;;;;;;;;;;5006646;28;19952;-61
2023/06/02 03:30:12;;;;;;;;;;;;;;;;;;5007248;28;19925;-62
2023/06/02 03:32:38;;;;;;;;;;;;;;;;;;5007416;28;19976;-61
2023/06/02 03:35:04;;;;;;;;;;;;;;;;;;4989767;28;20386;-61
2023/06/02 03:37:30;;;;;;;;;;;;;;;;;;5007784;28;19932;-61
2023/06/02 03:39:56;;;;;;;;;;;;;;;;;;5007568;28;19926;-62
2023/06/02 03:42:22;;;;;;;;;;;;;;;;;;4989714;28;20360;-61
2023/06/02 03:44:48;;;;;;;;;;;;;;;;;;4988723;28;19929;-62
2023/06/02 03:47:13;;;;;;;;;;;;;;;;;;5007189;28;19933;-61
2023/06/02 03:49:39;;;;;;;;;;;;;;;;;;5006451;28;19926;-62
2023/06/02 03:52:05;;;;;;;;;;;;;;;;;;5007385;28;20009;-62
2023/06/02 03:54:31;;;;;;;;;;;;;;;;;;5006730;28;20028;-62
2023/06/02 03:56:57;;;;;;;;;;;;;;;;;;5007096;28;20388;-62
2023/06/02 03:59:23;;;;;;;;;;;;;;;;;;5005525;28;19979;-62
2023/06/02 04:01:49;;;;;;;;;;;;;;;;;;4997357;28;19978;-62
2023/06/02 04:04:15;;;;;;;;;;;;;;;;;;5006429;28;19979;-62
2023/06/02 04:06:44;;;;;;;;;;;;;;;;;;5007152;28;19983;-62
2023/06/02 04:09:10;;;;;;;;;;;;;;;;;;5006844;28;19964;-62
2023/06/02 04:11:35;;;;;;;;;;;;;;;;;;5006653;28;19980;-62
2023/06/02 04:14:01;;;;;;;;;;;;;;;;;;5005095;28;19933;-62
2023/06/02 04:16:27;;;;;;;;;;;;;;;;;;5007233;28;19932;-61
2023/06/02 04:18:53;;;;;;;;;;;;;;;;;;5005537;28;20642;-61
2023/06/02 04:21:19;;;;;;;;;;;;;;;;;;5006517;28;19929;-62
2023/06/02 04:23:45;;;;;;;;;;;;;;;;;;4988695;28;19929;-62
2023/06/02 04:26:11;;;;;;;;;;;;;;;;;;5006045;28;19983;-62
2023/06/02 04:28:37;;;;;;;;;;;;;;;;;;5005157;28;19937;-62
2023/06/02 04:31:05;;;;;;;;;;;;;;;;;;5006579;28;19932;-62
2023/06/02 04:33:31;;;;;;;;;;;;;;;;;;5006317;28;20003;-62
2023/06/02 04:35:57;;;;;;;;;;;;;;;;;;5006457;28;20414;-62
2023/06/02 04:38:24;;;;;;;;;;;;;;;;;;5006121;28;19925;-61
2023/06/02 04:40:50;;;;;;;;;;;;;;;;;;5006429;28;19925;-61
2023/06/02 04:43:16;;;;;;;;;;;;;;;;;;5004962;28;19925;-62
2023/06/02 04:45:45;;;;;;;;;;;;;;;;;;5006090;28;19971;-62
2023/06/02 04:48:11;;;;;;;;;;;;;;;;;;5006110;28;19977;-62
2023/06/02 04:50:37;;;;;;;;;;;;;;;;;;5006180;28;20429;-62
2023/06/02 04:53:03;;;;;;;;;;;;;;;;;;5005926;28;19933;-63
2023/06/02 04:55:29;;;;;;;;;;;;;;;;;;5006260;28;19933;-62
2023/06/02 04:57:56;;;;;;;;;;;;;;;;;;5005024;28;20016;-62
2023/06/02 05:00:22;;;;;;;;;;;;;;;;;;5005592;28;19933;-63
2023/06/02 05:02:48;;;;;;;;;;;;;;;;;;5005905;28;19925;-63
2023/06/02 05:05:14;;;;;;;;;;;;;;;;;;5005518;28;19926;-62
2023/06/02 05:07:41;;;;;;;;;;;;;;;;;;5004899;28;20317;-62
2023/06/02 05:10:07;;;;;;;;;;;;;;;;;;5005661;28;20009;-62
2023/06/02 05:12:33;;;;;;;;;;;;;;;;;;5004018;28;19926;-62
2023/06/02 05:14:59;;;;;;;;;;;;;;;;;;5005934;28;19925;-62
2023/06/02 05:17:27;;;;;;;;;;;;;;;;;;5005825;28;20032;-62
2023/06/02 05:19:53;;;;;;;;;;;;;;;;;;4987799;28;19977;-63
2023/06/02 05:22:19;;;;;;;;;;;;;;;;;;5004225;28;19979;-63
2023/06/02 05:24:45;;;;;;;;;;;;;;;;;;5004546;28;19949;-62
2023/06/02 05:27:11;;;;;;;;;;;;;;;;;;5004867;28;19925;-62
2023/06/02 05:29:37;;;;;;;;;;;;;;;;;;5004703;28;19925;-62
2023/06/02 05:32:03;;;;;;;;;;;;;;;;;;5005643;28;19971;-63
2023/06/02 05:34:31;;;;;;;;;;;;;;;;;;5004539;28;19964;-62
2023/06/02 05:36:57;;;;;;;;;;;;;;;;;;5001684;28;19922;-63
2023/06/02 05:39:24;;;;;;;;;;;;;;;;;;5004671;28;20445;-63
2023/06/02 05:41:49;;;;;;;;;;;;;;;;;;5005656;28;19925;-64
2023/06/02 05:44:15;;;;;;;;;;;;;;;;;;5002825;28;19953;-63
2023/06/02 05:46:41;;;;;;;;;;;;;;;;;;5004278;28;19952;-63
2023/06/02 05:49:08;;;;;;;;;;;;;;;;;;5004004;28;20299;-63
2023/06/02 05:51:34;;;;;;;;;;;;;;;;;;5004872;28;19934;-63
2023/06/02 05:54:00;;;;;;;;;;;;;;;;;;5005084;28;20477;-62
2023/06/02 05:56:26;;;;;;;;;;;;;;;;;;5004071;28;20008;-63
2023/06/02 05:58:52;;;;;;;;;;;;;;;;;;5004238;28;20025;-63
2023/06/02 06:01:18;;;;;;;;;;;;;;;;;;5001296;28;19945;-63
2023/06/02 06:03:44;;;;;;;;;;;;;;;;;;5003460;28;19933;-63
2023/06/02 06:06:10;;;;;;;;;;;;;;;;;;5003017;28;20577;-64
2023/06/02 06:08:36;;;;;;;;;;;;;;;;;;5003240;28;19926;-64
2023/06/02 06:11:02;;;;;;;;;;;;;;;;;;5004262;28;20360;-64
2023/06/02 06:13:28;;;;;;;;;;;;;;;;;;5004495;28;20465;-63
2023/06/02 06:15:54;;;;;;;;;;;;;;;;;;4991965;28;19926;-64
2023/06/02 06:18:20;;;;;;;;;;;;;;;;;;5004981;28;19929;-66
2023/06/02 06:20:46;;;;;;;;;;;;;;;;;;5004825;28;19921;-63
2023/06/02 06:23:12;;;;;;;;;;;;;;;;;;5004998;28;20023;-63
2023/06/02 06:25:38;;;;;;;;;;;;;;;;;;5004702;28;19921;-63
2023/06/02 06:28:04;;;;;;;;;;;;;;;;;;5004127;28;19951;-63
2023/06/02 06:30:30;;;;;;;;;;;;;;;;;;5005417;28;19925;-63
2023/06/02 06:32:56;;;;;;;;;;;;;;;;;;5005133;28;19933;-63
2023/06/02 06:35:21;;;;;;;;;;;;;;;;;;5004901;28;20398;-63
2023/06/02 06:37:47;;;;;;;;;;;;;;;;;;5004921;28;19984;-63
2023/06/02 06:40:13;;;;;;;;;;;;;;;;;;5004074;28;20019;-64
2023/06/02 06:42:39;;;;;;;;;;;;;;;;;;5005974;28;20060;-64
2023/06/02 06:45:05;;;;;;;;;;;;;;;;;;5007935;28;20298;-63
2023/06/02 06:47:31;;;;;;;;;;;;;;;;;;5008560;28;19926;-64
2023/06/02 06:49:57;;;;;;;;;;;;;;;;;;5008699;28;20033;-64
2023/06/02 06:52:23;;;;;;;;;;;;;;;;;;4990068;28;19929;-64
2023/06/02 06:54:49;;;;;;;;;;;;;;;;;;5007146;28;20044;-64
2023/06/02 06:57:15;;;;;;;;;;;;;;;;;;5007524;28;20394;-63
2023/06/02 06:59:41;;;;;;;;;;;;;;;;;;5008021;28;19930;-63
2023/06/02 07:02:07;;;;;;;;;;;;;;;;;;5007441;28;20371;-64
2023/06/02 07:04:33;;;;;;;;;;;;;;;;;;5008190;28;19933;-63
2023/06/02 07:06:59;;;;;;;;;;;;;;;;;;5008132;28;19979;-63
2023/06/02 07:09:25;;;;;;;;;;;;;;;;;;5007438;28;19933;-64
2023/06/02 07:11:51;;;;;;;;;;;;;;;;;;5007898;28;19980;-63
2023/06/02 07:14:17;;;;;;;;;;;;;;;;;;5007465;28;19932;-63
2023/06/02 07:16:43;;;;;;;;;;;;;;;;;;5007505;28;19935;-64
2023/06/02 07:19:09;;;;;;;;;;;;;;;;;;5007547;28;19933;-63
2023/06/02 07:21:36;;;;;;;;;;;;;;;;;;5007813;28;19926;-64
2023/06/02 07:24:03;;;;;;;;;;;;;;;;;;5007043;28;20575;-64
2023/06/02 07:26:28;;;;;;;;;;;;;;;;;;5008039;28;19926;-63
2023/06/02 07:28:56;;;;;;;;;;;;;;;;;;5006499;28;20391;-64
2023/06/02 07:31:22;;;;;;;;;;;;;;;;;;4990121;28;19969;-64
2023/06/02 07:33:48;;;;;;;;;;;;;;;;;;4989466;28;19979;-64
2023/06/02 07:36:14;;;;;;;;;;;;;;;;;;5007765;28;19926;-63
2023/06/02 07:38:40;;;;;;;;;;;;;;;;;;5006989;28;19925;-64
2023/06/02 07:41:06;;;;;;;;;;;;;;;;;;5007232;28;19987;-64
2023/06/02 07:43:32;;;;;;;;;;;;;;;;;;5006548;28;19941;-64
2023/06/02 07:45:58;;;;;;;;;;;;;;;;;;5007456;28;19921;-64
2023/06/02 07:48:24;;;;;;;;;;;;;;;;;;5007153;28;19969;-64
2023/06/02 07:50:50;;;;;;;;;;;;;;;;;;5007239;28;20445;-64
2023/06/02 07:53:16;;;;;;;;;;;;;;;;;;5006726;28;20422;-63
2023/06/02 07:55:42;;;;;;;;;;;;;;;;;;5006740;28;19925;-64
2023/06/02 07:58:08;;;;;;;;;;;;;;;;;;5006150;28;19979;-63
2023/06/02 08:00:34;;;;;;;;;;;;;;;;;;5006929;28;19987;-63
2023/06/02 08:03:00;;;;;;;;;;;;;;;;;;4989246;28;19995;-64
2023/06/02 08:05:26;;;;;;;;;;;;;;;;;;5007562;28;19925;-64
2023/06/02 08:07:52;;;;;;;;;;;;;;;;;;4988987;28;20033;-64
2023/06/02 08:10:18;;;;;;;;;;;;;;;;;;5006270;28;20431;-63
2023/06/02 08:12:44;;;;;;;;;;;;;;;;;;5006018;28;19975;-64
2023/06/02 08:15:10;;;;;;;;;;;;;;;;;;5006817;28;19926;-64
2023/06/02 08:17:36;;;;;;;;;;;;;;;;;;5006582;28;19929;-64
2023/06/02 08:20:02;;;;;;;;;;;;;;;;;;5006502;28;19925;-64
2023/06/02 08:22:28;;;;;;;;;;;;;;;;;;5007020;28;19926;-64
2023/06/02 08:24:54;;;;;;;;;;;;;;;;;;5006168;28;19973;-64
2023/06/02 08:27:21;;;;;;;;;;;;;;;;;;5005588;28;20015;-64
2023/06/02 08:29:47;;;;;;;;;;;;;;;;;;5006696;28;19926;-63
2023/06/02 08:32:12;;;;;;;;;;;;;;;;;;5005893;28;19925;-64
2023/06/02 08:34:41;;;;;;;;;;;;;;;;;;5006550;28;20008;-64
2023/06/02 08:37:16;;;;;;;;;;;;;;;;;;5005542;28;20386;-64
2023/06/02 08:39:42;;;;;;;;;;;;;;;;;;5006599;28;19925;-64
2023/06/02 08:42:08;;;;;;;;;;;;;;;;;;5005120;28;20306;-64
2023/06/02 08:44:35;;;;;;;;;;;;;;;;;;5006507;28;19926;-63
2023/06/02 08:47:01;;;;;;;;;;;;;;;;;;5006215;28;19926;-64
2023/06/02 08:49:27;;;;;;;;;;;;;;;;;;5006210;28;19932;-64
2023/06/02 08:51:53;;;;;;;;;;;;;;;;;;5005319;28;20302;-64
2023/06/02 08:54:20;;;;;;;;;;;;;;;;;;5006009;28;19926;-63
2023/06/02 08:56:46;;;;;;;;;;;;;;;;;;5005179;28;19926;-64
2023/06/02 08:59:12;;;;;;;;;;;;;;;;;;5004749;28;19925;-64
2023/06/02 09:01:38;;;;;;;;;;;;;;;;;;5006179;28;20024;-64
2023/06/02 09:04:03;;;;;;;;;;;;;;;;;;5005627;28;19925;-64
2023/06/02 09:06:29;;;;;;;;;;;;;;;;;;5005047;28;19926;-64
2023/06/02 09:08:55;;;;;;;;;;;;;;;;;;5005799;28;19976;-69
2023/06/02 09:11:22;;;;;;;;;;;;;;;;;;5005572;28;19932;-67
2023/06/02 09:13:48;;;;;;;;;;;;;;;;;;5004791;28;19925;-63
2023/06/02 09:16:13;;;;;;;;;;;;;;;;;;4988149;28;19926;-64
2023/06/02 09:18:39;;;;;;;;;;;;;;;;;;5005605;28;19925;-64
2023/06/02 09:21:05;;;;;;;;;;;;;;;;;;5005124;28;19929;-64
2023/06/02 09:23:31;;;;;;;;;;;;;;;;;;5005586;28;19983;-64
2023/06/02 09:25:57;;;;;;;;;;;;;;;;;;5005685;28;20389;-64
2023/06/02 09:28:23;;;;;;;;;;;;;;;;;;5004592;28;19933;-63
2023/06/02 09:30:49;;;;;;;;;;;;;;;;;;5005434;28;19929;-64
2023/06/02 09:33:16;;;;;;;;;;;;;;;;;;5005900;28;19984;-64
2023/06/02 09:35:42;;;;;;;;;;;;;;;;;;5004851;28;19925;-64
2023/06/02 09:38:07;;;;;;;;;;;;;;;;;;5005519;28;20356;-64
2023/06/02 09:40:34;;;;;;;;;;;;;;;;;;5005407;28;20009;-64
2023/06/02 09:43:00;;;;;;;;;;;;;;;;;;4986751;28;19925;-63
2023/06/02 09:45:26;;;;;;;;;;;;;;;;;;5005740;28;19951;-64
2023/06/02 09:47:52;;;;;;;;;;;;;;;;;;5005500;28;20033;-64
2023/06/02 09:50:18;;;;;;;;;;;;;;;;;;5004909;28;19926;-64
2023/06/02 09:52:44;;;;;;;;;;;;;;;;;;5005517;28;19929;-64
2023/06/02 09:55:10;;;;;;;;;;;;;;;;;;5005538;28;19925;-64
2023/06/02 09:57:36;;;;;;;;;;;;;;;;;;5004332;28;20582;-64
2023/06/02 10:00:02;;;;;;;;;;;;;;;;;;4987352;28;19922;-64
2023/06/02 10:02:28;;;;;;;;;;;;;;;;;;5004189;28;20008;-64
2023/06/02 10:04:54;;;;;;;;;;;;;;;;;;4987343;28;20053;-64
2023/06/02 10:07:20;;;;;;;;;;;;;;;;;;5005093;28;19934;-64
2023/06/02 10:09:46;;;;;;;;;;;;;;;;;;5005203;28;19926;-64
2023/06/02 10:12:11;;;;;;;;;;;;;;;;;;5004219;28;20395;-64
2023/06/02 10:14:37;;;;;;;;;;;;;;;;;;5004935;28;19979;-64
2023/06/02 10:17:03;;;;;;;;;;;;;;;;;;5006509;28;19926;-64
2023/06/02 10:19:29;;;;;;;;;;;;;;;;;;5009043;28;19926;-64
2023/06/02 10:21:55;;;;;;;;;;;;;;;;;;4990906;28;20476;-64
2023/06/02 10:24:21;;;;;;;;;;;;;;;;;;5008600;28;19937;-63
2023/06/02 10:26:47;;;;;;;;;;;;;;;;;;5007367;28;19932;-64
2023/06/02 10:29:13;;;;;;;;;;;;;;;;;;5008670;28;19926;-64
2023/06/02 10:31:39;;;;;;;;;;;;;;;;;;5008540;28;20405;-64
2023/06/02 10:34:05;;;;;;;;;;;;;;;;;;5009134;28;20008;-64
2023/06/02 10:36:31;;;;;;;;;;;;;;;;;;5007762;28;20442;-64
2023/06/02 10:38:57;;;;;;;;;;;;;;;;;;4991307;28;20008;-64
2023/06/02 10:41:23;;;;;;;;;;;;;;;;;;5008122;28;20007;-64
2023/06/02 10:43:49;;;;;;;;;;;;;;;;;;5008521;28;19969;-64
2023/06/02 10:46:15;;;;;;;;;;;;;;;;;;5008368;28;20012;-64
2023/06/02 10:48:41;;;;;;;;;;;;;;;;;;5007959;28;19952;-64
2023/06/02 10:51:07;;;;;;;;;;;;;;;;;;5007694;28;19926;-64
2023/06/02 10:53:33;;;;;;;;;;;;;;;;;;5008119;28;19936;-64
2023/06/02 10:55:59;;;;;;;;;;;;;;;;;;5008587;28;19925;-64
2023/06/02 10:58:25;;;;;;;;;;;;;;;;;;5007397;28;19929;-64
2023/06/02 11:00:53;;;;;;;;;;;;;;;;;;5007978;28;19936;-64
2023/06/02 11:03:22;;;;;;;;;;;;;;;;;;5007865;28;19929;-64
2023/06/02 11:05:53;;;;;;;;;;;;;;;;;;5008096;28;19922;-64
2023/06/02 11:08:23;;;;;;;;;;;;;;;;;;4995413;28;20073;-64
2023/06/02 11:10:49;;;;;;;;;;;;;;;;;;5007714;28;19929;-63
2023/06/02 11:13:14;;;;;;;;;;;;;;;;;;5007064;28;19926;-64
2023/06/02 11:15:41;;;;;;;;;;;;;;;;;;5006884;28;19936;-64
2023/06/02 11:18:07;;;;;;;;;;;;;;;;;;5006853;28;20287;-64
2023/06/02 11:20:34;;;;;;;;;;;;;;;;;;5005563;28;19980;-64
2023/06/02 11:23:00;;;;;;;;;;;;;;;;;;5006970;28;20165;-65
2023/06/02 11:25:26;;;;;;;;;;;;;;;;;;5008128;28;20462;-65
2023/06/02 11:27:52;;;;;;;;;;;;;;;;;;5006435;28;19932;-65
2023/06/02 11:30:18;;;;;;;;;;;;;;;;;;4989853;28;19922;-65
2023/06/02 11:32:44;;;;;;;;;;;;;;;;;;4992712;28;19930;-65
2023/06/02 11:35:10;;;;;;;;;;;;;;;;;;5007647;28;19933;-64
2023/06/02 11:37:36;;;;;;;;;;;;;;;;;;4987418;28;20452;-64
2023/06/02 11:40:03;;;;;;;;;;;;;;;;;;5005292;28;19925;-65
2023/06/02 11:42:29;;;;;;;;;;;;;;;;;;4998540;28;20276;-64
2023/06/02 11:44:55;;;;;;;;;;;;;;;;;;5006953;28;19972;-64
2023/06/02 11:47:21;;;;;;;;;;;;;;;;;;5006592;28;19933;-64
2023/06/02 11:49:47;;;;;;;;;;;;;;;;;;5006445;28;19980;-64
2023/06/02 11:52:13;;;;;;;;;;;;;;;;;;5006959;28;20016;-63
2023/06/02 11:54:39;;;;;;;;;;;;;;;;;;5007193;28;20013;-64
2023/06/02 11:57:05;;;;;;;;;;;;;;;;;;5006367;28;19929;-64
2023/06/02 11:59:31;;;;;;;;;;;;;;;;;;5005691;28;20265;-63
2023/06/02 12:02:00;;;;;;;;;;;;;;;;;;5005338;28;19926;-64
2023/06/02 12:04:26;;;;;;;;;;;;;;;;;;5005593;28;20016;-64
2023/06/02 12:06:52;;;;;;;;;;;;;;;;;;5005456;28;20498;-64
2023/06/02 12:09:18;;;;;;;;;;;;;;;;;;5005342;28;20008;-64
2023/06/02 12:11:43;;;;;;;;;;;;;;;;;;5004587;28;20028;-64
2023/06/02 12:14:10;;;;;;;;;;;;;;;;;;5004952;28;19929;-64
2023/06/02 12:16:38;;;;;;;;;;;;;;;;;;5006390;28;19929;-64
2023/06/02 12:19:04;;;;;;;;;;;;;;;;;;5006317;28;19928;-64
2023/06/02 12:21:31;;;;;;;;;;;;;;;;;;5006868;28;19930;-63
2023/06/02 12:23:57;;;;;;;;;;;;;;;;;;5005343;28;19933;-65
2023/06/02 12:26:24;;;;;;;;;;;;;;;;;;5006480;28;20401;-64
2023/06/02 12:28:50;;;;;;;;;;;;;;;;;;5004934;28;19925;-65
2023/06/02 12:31:16;;;;;;;;;;;;;;;;;;5001821;28;19925;-64
2023/06/02 12:33:42;;;;;;;;;;;;;;;;;;4988932;28;20013;-64
2023/06/02 12:36:11;;;;;;;;;;;;;;;;;;5004482;28;19930;-64
2023/06/02 12:38:38;;;;;;;;;;;;;;;;;;5004391;28;19926;-64
2023/06/02 12:41:10;;;;;;;;;;;;;;;;;;5004884;28;19948;-64
2023/06/02 12:43:36;;;;;;;;;;;;;;;;;;5004168;28;19948;-65
2023/06/02 12:46:03;;;;;;;;;;;;;;;;;;5006442;28;20372;-63
2023/06/02 12:48:30;;;;;;;;;;;;;;;;;;5004091;28;19937;-65
2023/06/02 12:50:56;;;;;;;;;;;;;;;;;;5006890;28;19984;-62
2023/06/02 12:53:22;;;;;;;;;;;;;;;;;;5006397;28;19929;-62
2023/06/02 12:55:48;;;;;;;;;;;;;;;;;;5006461;28;19965;-62
2023/06/02 12:58:14;;;;;;;;;;;;;;;;;;5004953;28;20362;-62
2023/06/02 13:00:40;;;;;;;;;;;;;;;;;;5003899;28;19928;-62
2023/06/02 13:03:06;;;;;;;;;;;;;;;;;;5005533;28;19930;-63
2023/06/02 13:05:34;;;;;;;;;;;;;;;;;;5004484;28;19922;-64
2023/06/02 13:08:00;;;;;;;;;;;;;;;;;;5006494;28;20640;-63
2023/06/02 13:10:26;;;;;;;;;;;;;;;;;;5006054;28;19972;-64
2023/06/02 13:12:51;;;;;;;;;;;;;;;;;;5005304;28;20023;-64
2023/06/02 13:15:18;;;;;;;;;;;;;;;;;;5005628;28;19926;-64
2023/06/02 13:17:44;;;;;;;;;;;;;;;;;;5005870;28;20036;-64
2023/06/02 13:20:10;;;;;;;;;;;;;;;;;;5005933;28;20439;-64
2023/06/02 13:22:36;;;;;;;;;;;;;;;;;;5003882;28;19934;-65
2023/06/02 13:25:02;;;;;;;;;;;;;;;;;;5005749;28;20005;-63
2023/06/02 13:27:28;;;;;;;;;;;;;;;;;;5005480;28;20367;-63
2023/06/02 13:29:54;;;;;;;;;;;;;;;;;;5005545;28;19921;-63
2023/06/02 13:32:20;;;;;;;;;;;;;;;;;;5004939;28;19983;-63
2023/06/02 13:34:46;;;;;;;;;;;;;;;;;;5005589;28;19929;-63
2023/06/02 13:37:12;;;;;;;;;;;;;;;;;;5005807;28;19921;-63
2023/06/02 13:39:38;;;;;;;;;;;;;;;;;;5005829;28;19983;-63
2023/06/02 13:42:04;;;;;;;;;;;;;;;;;;5005339;28;20053;-65
2023/06/02 13:44:30;;;;;;;;;;;;;;;;;;5001877;28;20401;-63
2023/06/02 13:46:56;;;;;;;;;;;;;;;;;;5005556;28;19925;-63
2023/06/02 13:49:22;;;;;;;;;;;;;;;;;;5005766;28;19929;-63
2023/06/02 13:51:48;;;;;;;;;;;;;;;;;;5007768;28;20483;-63
2023/06/02 13:54:14;;;;;;;;;;;;;;;;;;5008679;28;20367;-63
2023/06/02 13:56:40;;;;;;;;;;;;;;;;;;5009071;28;20355;-63
2023/06/02 13:59:06;;;;;;;;;;;;;;;;;;5009287;28;20034;-64
2023/06/02 14:01:32;;;;;;;;;;;;;;;;;;5007398;28;19983;-63
2023/06/02 14:03:58;;;;;;;;;;;;;;;;;;5009560;28;19926;-66
2023/06/02 14:06:24;;;;;;;;;;;;;;;;;;5009510;28;20360;-63
2023/06/02 14:08:50;;;;;;;;;;;;;;;;;;5008873;28;19925;-63
2023/06/02 14:11:16;;;;;;;;;;;;;;;;;;5008251;28;19926;-63
2023/06/02 14:13:42;;;;;;;;;;;;;;;;;;5009257;28;19925;-63
2023/06/02 14:16:07;;;;;;;;;;;;;;;;;;4991826;28;19960;-63
2023/06/02 14:18:33;;;;;;;;;;;;;;;;;;5007680;28;19922;-63
2023/06/02 14:20:59;;;;;;;;;;;;;;;;;;5006893;28;19955;-63
2023/06/02 14:23:25;;;;;;;;;;;;;;;;;;5008241;28;19933;-63
2023/06/02 14:25:51;;;;;;;;;;;;;;;;;;5007524;28;20008;-63
2023/06/02 14:28:18;;;;;;;;;;;;;;;;;;5009023;28;20445;-62
2023/06/02 14:30:44;;;;;;;;;;;;;;;;;;5007894;28;19929;-62
2023/06/02 14:33:10;;;;;;;;;;;;;;;;;;4990853;28;19925;-63
2023/06/02 14:35:35;;;;;;;;;;;;;;;;;;4997376;28;20015;-61
2023/06/02 14:38:01;;;;;;;;;;;;;;;;;;5008172;28;19930;-63
2023/06/02 14:40:27;;;;;;;;;;;;;;;;;;4981166;28;19941;-63
2023/06/02 14:42:53;;;;;;;;;;;;;;;;;;4997934;28;20032;-63
2023/06/02 14:45:19;;;;;;;;;;;;;;;;;;5002671;28;19934;-63
2023/06/02 14:47:47;;;;;;;;;;;;;;;;;;5005068;28;20300;-64
2023/06/02 14:50:13;;;;;;;;;;;;;;;;;;4994865;28;19926;-63
2023/06/02 14:52:39;;;;;;;;;;;;;;;;;;4978885;28;19931;-61
2023/06/02 14:55:04;;;;;;;;;;;;;;;;;;5003678;28;20280;-62
2023/06/02 14:57:31;;;;;;;;;;;;;;;;;;4999199;28;19984;-62
2023/06/02 14:59:57;;;;;;;;;;;;;;;;;;4998822;28;19947;-62
2023/06/02 15:02:23;;;;;;;;;;;;;;;;;;4996667;28;20012;-62
2023/06/02 15:04:49;;;;;;;;;;;;;;;;;;4998501;28;20438;-62
2023/06/02 15:07:15;;;;;;;;;;;;;;;;;;4998440;28;19934;-63
2023/06/02 15:09:41;;;;;;;;;;;;;;;;;;4997559;28;19929;-62
2023/06/02 15:12:07;;;;;;;;;;;;;;;;;;5003131;28;19925;-63
2023/06/02 15:14:33;;;;;;;;;;;;;;;;;;5000373;28;19925;-62
2023/06/02 15:16:59;;;;;;;;;;;;;;;;;;5003153;28;19925;-63
2023/06/02 15:19:25;;;;;;;;;;;;;;;;;;4999696;28;19933;-63
2023/06/02 15:21:51;;;;;;;;;;;;;;;;;;5002352;28;19934;-62
2023/06/02 15:24:17;;;;;;;;;;;;;;;;;;5002283;28;19936;-63
2023/06/02 15:26:43;;;;;;;;;;;;;;;;;;5003228;28;20418;-63
2023/06/02 15:29:09;;;;;;;;;;;;;;;;;;5005990;28;20020;-63
2023/06/02 15:31:35;;;;;;;;;;;;;;;;;;5000032;28;19929;-63
2023/06/02 15:34:01;;;;;;;;;;;;;;;;;;4988431;28;20358;-63
2023/06/02 15:36:30;;;;;;;;;;;;;;;;;;4987413;28;19933;-63
2023/06/02 15:38:56;;;;;;;;;;;;;;;;;;4997353;28;19922;-63
2023/06/02 15:41:22;;;;;;;;;;;;;;;;;;5001987;28;20020;-63
2023/06/02 15:43:47;;;;;;;;;;;;;;;;;;5002505;28;20411;-63
2023/06/02 15:46:13;;;;;;;;;;;;;;;;;;4995040;28;19972;-61
2023/06/02 15:48:39;;;;;;;;;;;;;;;;;;4987403;28;19925;-62
2023/06/02 15:51:05;;;;;;;;;;;;;;;;;;4985080;28;19925;-63
2023/06/02 15:53:31;;;;;;;;;;;;;;;;;;4983648;28;19987;-63
2023/06/02 15:55:57;;;;;;;;;;;;;;;;;;4994695;28;20400;-64
2023/06/02 15:58:23;;;;;;;;;;;;;;;;;;4998088;28;19926;-64
2023/06/02 16:00:49;;;;;;;;;;;;;;;;;;4999679;28;19952;-64
2023/06/02 16:03:15;;;;;;;;;;;;;;;;;;4995667;28;19932;-63
2023/06/02 16:05:41;;;;;;;;;;;;;;;;;;4990163;28;19969;-64
2023/06/02 16:08:07;;;;;;;;;;;;;;;;;;4991086;28;19933;-63
2023/06/02 16:10:33;;;;;;;;;;;;;;;;;;4987120;28;19926;-63
2023/06/02 16:12:59;;;;;;;;;;;;;;;;;;5001822;28;19926;-63
2023/06/02 16:15:25;;;;;;;;;;;;;;;;;;5004414;28;19933;-63
2023/06/02 16:17:51;;;;;;;;;;;;;;;;;;5005127;28;20287;-63
2023/06/02 16:20:17;;;;;;;;;;;;;;;;;;5006243;28;19925;-63
2023/06/02 16:22:43;;;;;;;;;;;;;;;;;;5006103;28;19926;-63
2023/06/02 16:25:08;;;;;;;;;;;;;;;;;;4999319;28;19952;-64
2023/06/02 16:27:34;;;;;;;;;;;;;;;;;;5005476;28;19925;-64
2023/06/02 16:30:00;;;;;;;;;;;;;;;;;;5004007;28;19925;-63
2023/06/02 16:32:26;;;;;;;;;;;;;;;;;;5004032;28;20437;-63
2023/06/02 16:34:52;;;;;;;;;;;;;;;;;;4999735;28;19960;-63
2023/06/02 16:37:18;;;;;;;;;;;;;;;;;;5001572;28;19925;-63
2023/06/02 16:39:44;;;;;;;;;;;;;;;;;;4995338;28;19981;-63